sensor_id;sensor_type;location;lat;lon;timestamp;P1;durP1;ratioP1;P2;durP2;ratioP2
1563;SDS011;775;51.958;7.976;2023-03-05T00:01:56;21.07;;;3.03;;
1563;SDS011;775;51.958;7.976;2023-03-05T00:04:24;14.27;;;2.80;;
1563;SDS011;775;51.958;7.976;2023-03-05T00:06:51;12.83;;;2.10;;
1563;SDS011;775;51.958;7.976;2023-03-05T00:09:19;13.27;;;2.20;;
1563;SDS011;775;51.958;7.976;2023-03-05T00:11:46;13.23;;;2.27;;
1563;SDS011;775;51.958;7.976;2023-03-05T00:14:13;22.00;;;2.37;;
1563;SDS011;775;51.958;7.976;2023-03-05T00:16:40;16.50;;;3.00;;
1563;SDS011;775;51.958;7.976;2023-03-05T00:19:09;11.50;;;2.83;;
1563;SDS011;775;51.958;7.976;2023-03-05T00:21:37;16.00;;;2.80;;
1563;SDS011;775;51.958;7.976;2023-03-05T00:24:05;13.10;;;1.93;;
1563;SDS011;775;51.958;7.976;2023-03-05T00:26:33;20.40;;;2.20;;
1563;SDS011;775;51.958;7.976;2023-03-05T00:29:01;12.40;;;3.50;;
1563;SDS011;775;51.958;7.976;2023-03-05T00:31:29;14.87;;;2.27;;
1563;SDS011;775;51.958;7.976;2023-03-05T00:33:56;12.53;;;3.13;;
1563;SDS011;775;51.958;7.976;2023-03-05T00:36:25;15.10;;;2.83;;
1563;SDS011;775;51.958;7.976;2023-03-05T00:38:53;13.23;;;2.50;;
1563;SDS011;775;51.958;7.976;2023-03-05T00:41:20;15.90;;;2.60;;
1563;SDS011;775;51.958;7.976;2023-03-05T00:43:47;11.03;;;2.00;;
1563;SDS011;775;51.958;7.976;2023-03-05T00:46:14;12.13;;;2.47;;
1563;SDS011;775;51.958;7.976;2023-03-05T00:48:41;15.30;;;2.73;;
1563;SDS011;775;51.958;7.976;2023-03-05T00:51:08;16.80;;;2.90;;
1563;SDS011;775;51.958;7.976;2023-03-05T00:53:37;12.17;;;2.70;;
1563;SDS011;775;51.958;7.976;2023-03-05T00:56:04;14.33;;;2.73;;
1563;SDS011;775;51.958;7.976;2023-03-05T00:58:31;19.33;;;2.90;;
1563;SDS011;775;51.958;7.976;2023-03-05T01:00:59;14.13;;;2.17;;
1563;SDS011;775;51.958;7.976;2023-03-05T01:03:26;15.70;;;2.70;;
1563;SDS011;775;51.958;7.976;2023-03-05T01:05:54;11.77;;;2.30;;
1563;SDS011;775;51.958;7.976;2023-03-05T01:08:21;13.33;;;1.90;;
1563;SDS011;775;51.958;7.976;2023-03-05T01:10:49;16.57;;;2.40;;
1563;SDS011;775;51.958;7.976;2023-03-05T01:13:16;14.93;;;2.23;;
1563;SDS011;775;51.958;7.976;2023-03-05T01:15:44;16.60;;;2.73;;
1563;SDS011;775;51.958;7.976;2023-03-05T01:18:12;15.63;;;2.50;;
1563;SDS011;775;51.958;7.976;2023-03-05T01:20:39;18.87;;;4.10;;
1563;SDS011;775;51.958;7.976;2023-03-05T01:23:06;11.90;;;2.30;;
1563;SDS011;775;51.958;7.976;2023-03-05T01:25:33;13.13;;;2.43;;
1563;SDS011;775;51.958;7.976;2023-03-05T01:28:01;12.37;;;2.30;;
1563;SDS011;775;51.958;7.976;2023-03-05T01:30:29;11.93;;;2.53;;
1563;SDS011;775;51.958;7.976;2023-03-05T01:32:56;12.67;;;2.70;;
1563;SDS011;775;51.958;7.976;2023-03-05T01:35:24;12.70;;;3.27;;
1563;SDS011;775;51.958;7.976;2023-03-05T01:37:51;13.63;;;1.97;;
1563;SDS011;775;51.958;7.976;2023-03-05T01:40:20;15.20;;;2.43;;
1563;SDS011;775;51.958;7.976;2023-03-05T01:42:48;14.33;;;2.20;;
1563;SDS011;775;51.958;7.976;2023-03-05T01:45:17;12.03;;;2.10;;
1563;SDS011;775;51.958;7.976;2023-03-05T01:47:44;16.53;;;2.53;;
1563;SDS011;775;51.958;7.976;2023-03-05T01:50:12;14.20;;;2.20;;
1563;SDS011;775;51.958;7.976;2023-03-05T01:52:41;16.63;;;2.60;;
1563;SDS011;775;51.958;7.976;2023-03-05T01:55:11;15.10;;;2.57;;
1563;SDS011;775;51.958;7.976;2023-03-05T01:57:40;12.40;;;2.33;;
1563;SDS011;775;51.958;7.976;2023-03-05T02:00:10;16.00;;;3.80;;
1563;SDS011;775;51.958;7.976;2023-03-05T02:02:40;14.87;;;2.30;;
1563;SDS011;775;51.958;7.976;2023-03-05T02:05:08;15.67;;;2.47;;
1563;SDS011;775;51.958;7.976;2023-03-05T02:07:36;12.07;;;2.20;;
1563;SDS011;775;51.958;7.976;2023-03-05T02:10:13;13.33;;;2.10;;
1563;SDS011;775;51.958;7.976;2023-03-05T02:12:40;13.87;;;2.23;;
1563;SDS011;775;51.958;7.976;2023-03-05T02:15:07;17.43;;;2.40;;
1563;SDS011;775;51.958;7.976;2023-03-05T02:17:35;13.80;;;2.97;;
1563;SDS011;775;51.958;7.976;2023-03-05T02:20:04;11.67;;;1.97;;
1563;SDS011;775;51.958;7.976;2023-03-05T02:22:33;13.97;;;2.37;;
1563;SDS011;775;51.958;7.976;2023-03-05T02:25:00;11.40;;;1.80;;
1563;SDS011;775;51.958;7.976;2023-03-05T02:27:29;15.00;;;2.10;;
1563;SDS011;775;51.958;7.976;2023-03-05T02:29:59;13.27;;;3.23;;
1563;SDS011;775;51.958;7.976;2023-03-05T02:32:26;14.60;;;2.70;;
1563;SDS011;775;51.958;7.976;2023-03-05T02:34:53;11.10;;;2.10;;
1563;SDS011;775;51.958;7.976;2023-03-05T02:37:20;17.17;;;2.80;;
1563;SDS011;775;51.958;7.976;2023-03-05T02:39:49;11.40;;;2.50;;
1563;SDS011;775;51.958;7.976;2023-03-05T02:42:16;16.53;;;2.70;;
1563;SDS011;775;51.958;7.976;2023-03-05T02:44:43;12.07;;;2.37;;
1563;SDS011;775;51.958;7.976;2023-03-05T02:47:10;11.60;;;2.30;;
1563;SDS011;775;51.958;7.976;2023-03-05T02:49:37;12.83;;;2.20;;
1563;SDS011;775;51.958;7.976;2023-03-05T02:52:04;13.67;;;2.10;;
1563;SDS011;775;51.958;7.976;2023-03-05T02:54:33;12.63;;;2.40;;
1563;SDS011;775;51.958;7.976;2023-03-05T02:57:01;10.83;;;2.43;;
1563;SDS011;775;51.958;7.976;2023-03-05T02:59:28;16.10;;;2.07;;
1563;SDS011;775;51.958;7.976;2023-03-05T03:01:55;16.03;;;2.30;;
1563;SDS011;775;51.958;7.976;2023-03-05T03:04:22;10.67;;;2.40;;
1563;SDS011;775;51.958;7.976;2023-03-05T03:06:50;14.00;;;3.23;;
1563;SDS011;775;51.958;7.976;2023-03-05T03:09:17;11.57;;;2.20;;
1563;SDS011;775;51.958;7.976;2023-03-05T03:11:44;11.67;;;2.00;;
1563;SDS011;775;51.958;7.976;2023-03-05T03:14:13;14.40;;;2.43;;
1563;SDS011;775;51.958;7.976;2023-03-05T03:16:40;13.97;;;3.07;;
1563;SDS011;775;51.958;7.976;2023-03-05T03:19:07;12.73;;;2.00;;
1563;SDS011;775;51.958;7.976;2023-03-05T03:21:34;17.63;;;2.67;;
1563;SDS011;775;51.958;7.976;2023-03-05T03:24:01;12.07;;;2.60;;
1563;SDS011;775;51.958;7.976;2023-03-05T03:26:28;11.83;;;2.13;;
1563;SDS011;775;51.958;7.976;2023-03-05T03:28:55;13.73;;;2.77;;
1563;SDS011;775;51.958;7.976;2023-03-05T03:31:24;11.20;;;2.07;;
1563;SDS011;775;51.958;7.976;2023-03-05T03:33:51;11.60;;;2.00;;
1563;SDS011;775;51.958;7.976;2023-03-05T03:36:19;13.43;;;2.40;;
1563;SDS011;775;51.958;7.976;2023-03-05T03:38:46;13.03;;;2.50;;
1563;SDS011;775;51.958;7.976;2023-03-05T03:41:13;10.60;;;1.97;;
1563;SDS011;775;51.958;7.976;2023-03-05T03:43:40;10.27;;;2.37;;
1563;SDS011;775;51.958;7.976;2023-03-05T03:46:07;14.93;;;3.00;;
1563;SDS011;775;51.958;7.976;2023-03-05T03:48:35;11.53;;;2.23;;
1563;SDS011;775;51.958;7.976;2023-03-05T03:51:03;12.60;;;2.37;;
1563;SDS011;775;51.958;7.976;2023-03-05T03:53:31;12.70;;;2.50;;
1563;SDS011;775;51.958;7.976;2023-03-05T03:55:58;12.77;;;2.23;;
1563;SDS011;775;51.958;7.976;2023-03-05T03:58:25;15.60;;;2.00;;
1563;SDS011;775;51.958;7.976;2023-03-05T04:00:52;10.00;;;2.03;;
1563;SDS011;775;51.958;7.976;2023-03-05T04:03:19;11.67;;;2.07;;
1563;SDS011;775;51.958;7.976;2023-03-05T04:05:48;11.40;;;2.20;;
1563;SDS011;775;51.958;7.976;2023-03-05T04:08:15;12.50;;;2.50;;
1563;SDS011;775;51.958;7.976;2023-03-05T04:10:42;10.80;;;2.10;;
1563;SDS011;775;51.958;7.976;2023-03-05T04:13:09;14.27;;;2.53;;
1563;SDS011;775;51.958;7.976;2023-03-05T04:15:36;11.57;;;1.80;;
1563;SDS011;775;51.958;7.976;2023-03-05T04:18:03;12.47;;;1.93;;
1563;SDS011;775;51.958;7.976;2023-03-05T04:20:30;11.40;;;2.10;;
1563;SDS011;775;51.958;7.976;2023-03-05T04:22:59;13.63;;;2.40;;
1563;SDS011;775;51.958;7.976;2023-03-05T04:25:26;13.40;;;1.80;;
1563;SDS011;775;51.958;7.976;2023-03-05T04:27:53;13.70;;;2.13;;
1563;SDS011;775;51.958;7.976;2023-03-05T04:30:20;12.40;;;2.13;;
1563;SDS011;775;51.958;7.976;2023-03-05T04:32:47;14.80;;;2.30;;
1563;SDS011;775;51.958;7.976;2023-03-05T04:35:14;21.50;;;2.30;;
1563;SDS011;775;51.958;7.976;2023-03-05T04:37:41;13.53;;;2.20;;
1563;SDS011;775;51.958;7.976;2023-03-05T04:40:10;12.33;;;2.20;;
1563;SDS011;775;51.958;7.976;2023-03-05T04:42:37;12.63;;;2.27;;
1563;SDS011;775;51.958;7.976;2023-03-05T04:45:05;13.50;;;2.37;;
1563;SDS011;775;51.958;7.976;2023-03-05T04:47:32;16.70;;;2.30;;
1563;SDS011;775;51.958;7.976;2023-03-05T04:50:00;18.37;;;2.10;;
1563;SDS011;775;51.958;7.976;2023-03-05T04:52:27;11.53;;;1.90;;
1563;SDS011;775;51.958;7.976;2023-03-05T04:54:54;12.93;;;2.50;;
1563;SDS011;775;51.958;7.976;2023-03-05T04:57:23;11.67;;;2.40;;
1563;SDS011;775;51.958;7.976;2023-03-05T04:59:50;11.70;;;2.20;;
1563;SDS011;775;51.958;7.976;2023-03-05T05:02:17;11.97;;;2.13;;
1563;SDS011;775;51.958;7.976;2023-03-05T05:04:44;14.63;;;2.73;;
1563;SDS011;775;51.958;7.976;2023-03-05T05:07:11;13.13;;;2.23;;
1563;SDS011;775;51.958;7.976;2023-03-05T05:09:38;16.50;;;2.70;;
1563;SDS011;775;51.958;7.976;2023-03-05T05:12:06;12.73;;;1.97;;
1563;SDS011;775;51.958;7.976;2023-03-05T05:14:35;11.70;;;2.93;;
1563;SDS011;775;51.958;7.976;2023-03-05T05:17:02;13.27;;;2.40;;
1563;SDS011;775;51.958;7.976;2023-03-05T05:19:30;9.70;;;2.13;;
1563;SDS011;775;51.958;7.976;2023-03-05T05:21:57;13.63;;;2.70;;
1563;SDS011;775;51.958;7.976;2023-03-05T05:24:24;13.50;;;2.83;;
1563;SDS011;775;51.958;7.976;2023-03-05T05:26:52;16.60;;;2.43;;
1563;SDS011;775;51.958;7.976;2023-03-05T05:29:20;16.47;;;2.97;;
1563;SDS011;775;51.958;7.976;2023-03-05T05:31:48;12.80;;;2.40;;
1563;SDS011;775;51.958;7.976;2023-03-05T05:34:17;11.83;;;2.13;;
1563;SDS011;775;51.958;7.976;2023-03-05T05:36:44;12.57;;;2.97;;
1563;SDS011;775;51.958;7.976;2023-03-05T05:39:11;12.37;;;2.43;;
1563;SDS011;775;51.958;7.976;2023-03-05T05:41:38;11.73;;;2.33;;
1563;SDS011;775;51.958;7.976;2023-03-05T05:44:05;10.50;;;2.13;;
1563;SDS011;775;51.958;7.976;2023-03-05T05:46:33;13.83;;;2.27;;
1563;SDS011;775;51.958;7.976;2023-03-05T05:49:01;11.73;;;2.43;;
1563;SDS011;775;51.958;7.976;2023-03-05T05:51:28;11.23;;;2.83;;
1563;SDS011;775;51.958;7.976;2023-03-05T05:53:55;11.40;;;2.30;;
1563;SDS011;775;51.958;7.976;2023-03-05T05:56:22;9.50;;;1.83;;
1563;SDS011;775;51.958;7.976;2023-03-05T05:58:50;12.10;;;2.10;;
1563;SDS011;775;51.958;7.976;2023-03-05T06:01:18;14.00;;;1.90;;
1563;SDS011;775;51.958;7.976;2023-03-05T06:03:46;11.30;;;2.07;;
1563;SDS011;775;51.958;7.976;2023-03-05T06:06:15;11.30;;;2.20;;
1563;SDS011;775;51.958;7.976;2023-03-05T06:08:42;11.17;;;2.40;;
1563;SDS011;775;51.958;7.976;2023-03-05T06:11:10;13.17;;;2.50;;
1563;SDS011;775;51.958;7.976;2023-03-05T06:13:37;12.33;;;2.30;;
1563;SDS011;775;51.958;7.976;2023-03-05T06:16:05;11.23;;;2.20;;
1563;SDS011;775;51.958;7.976;2023-03-05T06:18:33;13.50;;;2.20;;
1563;SDS011;775;51.958;7.976;2023-03-05T06:21:01;16.93;;;2.10;;
1563;SDS011;775;51.958;7.976;2023-03-05T06:23:30;11.60;;;2.17;;
1563;SDS011;775;51.958;7.976;2023-03-05T06:25:58;15.07;;;2.57;;
1563;SDS011;775;51.958;7.976;2023-03-05T06:28:25;10.77;;;2.50;;
1563;SDS011;775;51.958;7.976;2023-03-05T06:30:58;11.57;;;2.00;;
1563;SDS011;775;51.958;7.976;2023-03-05T06:33:25;10.10;;;2.10;;
1563;SDS011;775;51.958;7.976;2023-03-05T06:35:52;20.67;;;2.73;;
1563;SDS011;775;51.958;7.976;2023-03-05T06:38:19;15.30;;;2.13;;
1563;SDS011;775;51.958;7.976;2023-03-05T06:40:47;10.90;;;2.20;;
1563;SDS011;775;51.958;7.976;2023-03-05T06:43:14;10.37;;;2.20;;
1563;SDS011;775;51.958;7.976;2023-03-05T06:45:42;11.83;;;2.50;;
1563;SDS011;775;51.958;7.976;2023-03-05T06:48:09;11.27;;;1.93;;
1563;SDS011;775;51.958;7.976;2023-03-05T06:50:37;11.17;;;2.40;;
1563;SDS011;775;51.958;7.976;2023-03-05T06:53:04;11.30;;;1.63;;
1563;SDS011;775;51.958;7.976;2023-03-05T06:55:31;12.20;;;1.90;;
1563;SDS011;775;51.958;7.976;2023-03-05T06:58:05;10.37;;;2.30;;
1563;SDS011;775;51.958;7.976;2023-03-05T07:00:32;12.60;;;1.93;;
1563;SDS011;775;51.958;7.976;2023-03-05T07:02:59;15.90;;;3.00;;
1563;SDS011;775;51.958;7.976;2023-03-05T07:05:26;12.20;;;2.37;;
1563;SDS011;775;51.958;7.976;2023-03-05T07:07:53;11.17;;;2.20;;
1563;SDS011;775;51.958;7.976;2023-03-05T07:10:20;11.93;;;1.87;;
1563;SDS011;775;51.958;7.976;2023-03-05T07:12:47;19.07;;;2.93;;
1563;SDS011;775;51.958;7.976;2023-03-05T07:15:16;10.23;;;1.93;;
1563;SDS011;775;51.958;7.976;2023-03-05T07:17:43;10.77;;;1.90;;
1563;SDS011;775;51.958;7.976;2023-03-05T07:20:10;13.63;;;1.83;;
1563;SDS011;775;51.958;7.976;2023-03-05T07:22:37;10.13;;;1.97;;
1563;SDS011;775;51.958;7.976;2023-03-05T07:25:05;10.10;;;1.70;;
1563;SDS011;775;51.958;7.976;2023-03-05T07:27:33;10.67;;;1.97;;
1563;SDS011;775;51.958;7.976;2023-03-05T07:30:00;11.23;;;2.07;;
1563;SDS011;775;51.958;7.976;2023-03-05T07:32:29;11.97;;;2.53;;
1563;SDS011;775;51.958;7.976;2023-03-05T07:34:56;11.40;;;2.00;;
1563;SDS011;775;51.958;7.976;2023-03-05T07:37:23;12.80;;;2.03;;
1563;SDS011;775;51.958;7.976;2023-03-05T07:39:50;10.37;;;1.80;;
1563;SDS011;775;51.958;7.976;2023-03-05T07:42:17;10.10;;;1.80;;
1563;SDS011;775;51.958;7.976;2023-03-05T07:44:44;10.10;;;1.73;;
1563;SDS011;775;51.958;7.976;2023-03-05T07:47:11;9.97;;;1.73;;
1563;SDS011;775;51.958;7.976;2023-03-05T07:49:39;11.67;;;1.73;;
1563;SDS011;775;51.958;7.976;2023-03-05T07:52:07;10.53;;;1.60;;
1563;SDS011;775;51.958;7.976;2023-03-05T07:54:34;13.17;;;1.97;;
1563;SDS011;775;51.958;7.976;2023-03-05T07:57:04;9.33;;;1.60;;
1563;SDS011;775;51.958;7.976;2023-03-05T07:59:31;9.77;;;1.40;;
1563;SDS011;775;51.958;7.976;2023-03-05T08:01:58;11.50;;;2.50;;
1563;SDS011;775;51.958;7.976;2023-03-05T08:04:26;12.40;;;2.60;;
1563;SDS011;775;51.958;7.976;2023-03-05T08:06:57;10.30;;;1.80;;
1563;SDS011;775;51.958;7.976;2023-03-05T08:09:24;10.00;;;1.93;;
1563;SDS011;775;51.958;7.976;2023-03-05T08:11:51;11.40;;;2.30;;
1563;SDS011;775;51.958;7.976;2023-03-05T08:14:18;11.47;;;1.80;;
1563;SDS011;775;51.958;7.976;2023-03-05T08:16:45;10.80;;;2.00;;
1563;SDS011;775;51.958;7.976;2023-03-05T08:19:16;11.60;;;2.70;;
1563;SDS011;775;51.958;7.976;2023-03-05T08:21:43;10.93;;;2.57;;
1563;SDS011;775;51.958;7.976;2023-03-05T08:24:12;10.00;;;2.80;;
1563;SDS011;775;51.958;7.976;2023-03-05T08:26:39;11.43;;;2.73;;
1563;SDS011;775;51.958;7.976;2023-03-05T08:29:07;11.47;;;2.40;;
1563;SDS011;775;51.958;7.976;2023-03-05T08:31:34;11.03;;;2.50;;
1563;SDS011;775;51.958;7.976;2023-03-05T08:34:02;12.03;;;2.90;;
1563;SDS011;775;51.958;7.976;2023-03-05T08:36:30;9.50;;;1.90;;
1563;SDS011;775;51.958;7.976;2023-03-05T08:38:57;12.40;;;1.83;;
1563;SDS011;775;51.958;7.976;2023-03-05T08:41:26;11.63;;;1.70;;
1563;SDS011;775;51.958;7.976;2023-03-05T08:43:53;10.63;;;1.93;;
1563;SDS011;775;51.958;7.976;2023-03-05T08:46:20;11.83;;;2.60;;
1563;SDS011;775;51.958;7.976;2023-03-05T08:48:47;12.43;;;2.80;;
1563;SDS011;775;51.958;7.976;2023-03-05T08:51:14;14.20;;;2.00;;
1563;SDS011;775;51.958;7.976;2023-03-05T08:53:42;11.63;;;2.07;;
1563;SDS011;775;51.958;7.976;2023-03-05T08:56:10;10.10;;;2.13;;
1563;SDS011;775;51.958;7.976;2023-03-05T08:58:38;17.60;;;3.07;;
1563;SDS011;775;51.958;7.976;2023-03-05T09:01:06;10.77;;;2.97;;
1563;SDS011;775;51.958;7.976;2023-03-05T09:03:33;9.90;;;2.00;;
1563;SDS011;775;51.958;7.976;2023-03-05T09:06:00;11.60;;;1.70;;
1563;SDS011;775;51.958;7.976;2023-03-05T09:08:27;10.00;;;1.70;;
1563;SDS011;775;51.958;7.976;2023-03-05T09:10:55;10.60;;;1.80;;
1563;SDS011;775;51.958;7.976;2023-03-05T09:13:22;12.00;;;1.80;;
1563;SDS011;775;51.958;7.976;2023-03-05T09:15:54;10.40;;;2.00;;
1563;SDS011;775;51.958;7.976;2023-03-05T09:18:21;9.30;;;1.70;;
1563;SDS011;775;51.958;7.976;2023-03-05T09:20:48;10.20;;;1.80;;
1563;SDS011;775;51.958;7.976;2023-03-05T09:23:15;10.67;;;1.77;;
1563;SDS011;775;51.958;7.976;2023-03-05T09:25:42;9.37;;;1.53;;
1563;SDS011;775;51.958;7.976;2023-03-05T09:28:09;10.17;;;1.80;;
1563;SDS011;775;51.958;7.976;2023-03-05T09:30:37;9.30;;;1.80;;
1563;SDS011;775;51.958;7.976;2023-03-05T09:33:05;12.10;;;1.90;;
1563;SDS011;775;51.958;7.976;2023-03-05T09:35:33;9.60;;;1.60;;
1563;SDS011;775;51.958;7.976;2023-03-05T09:38:00;9.50;;;1.67;;
1563;SDS011;775;51.958;7.976;2023-03-05T09:40:29;11.40;;;1.70;;
1563;SDS011;775;51.958;7.976;2023-03-05T09:43:00;9.63;;;1.63;;
1563;SDS011;775;51.958;7.976;2023-03-05T09:45:29;12.03;;;1.80;;
1563;SDS011;775;51.958;7.976;2023-03-05T09:48:01;9.80;;;1.37;;
1563;SDS011;775;51.958;7.976;2023-03-05T09:50:34;10.83;;;1.40;;
1563;SDS011;775;51.958;7.976;2023-03-05T09:53:03;9.30;;;1.70;;
1563;SDS011;775;51.958;7.976;2023-03-05T09:55:32;9.60;;;1.60;;
1563;SDS011;775;51.958;7.976;2023-03-05T09:58:02;9.60;;;1.50;;
1563;SDS011;775;51.958;7.976;2023-03-05T10:00:32;9.00;;;1.50;;
1563;SDS011;775;51.958;7.976;2023-03-05T10:03:03;11.03;;;2.20;;
1563;SDS011;775;51.958;7.976;2023-03-05T10:05:35;9.83;;;1.70;;
1563;SDS011;775;51.958;7.976;2023-03-05T10:08:09;11.10;;;1.80;;
1563;SDS011;775;51.958;7.976;2023-03-05T10:10:39;10.50;;;1.50;;
1563;SDS011;775;51.958;7.976;2023-03-05T10:13:10;9.73;;;1.90;;
1563;SDS011;775;51.958;7.976;2023-03-05T10:15:40;11.30;;;1.97;;
1563;SDS011;775;51.958;7.976;2023-03-05T10:18:17;11.87;;;1.60;;
1563;SDS011;775;51.958;7.976;2023-03-05T10:20:56;9.60;;;1.67;;
1563;SDS011;775;51.958;7.976;2023-03-05T10:23:37;8.80;;;1.50;;
1563;SDS011;775;51.958;7.976;2023-03-05T10:26:14;12.50;;;1.77;;
1563;SDS011;775;51.958;7.976;2023-03-05T10:28:46;10.20;;;1.63;;
1563;SDS011;775;51.958;7.976;2023-03-05T10:31:17;10.97;;;1.87;;
1563;SDS011;775;51.958;7.976;2023-03-05T10:33:51;10.33;;;1.60;;
1563;SDS011;775;51.958;7.976;2023-03-05T10:36:28;11.27;;;1.90;;
1563;SDS011;775;51.958;7.976;2023-03-05T10:39:01;9.63;;;1.43;;
1563;SDS011;775;51.958;7.976;2023-03-05T10:41:32;10.30;;;1.63;;
1563;SDS011;775;51.958;7.976;2023-03-05T10:44:03;11.80;;;2.10;;
1563;SDS011;775;51.958;7.976;2023-03-05T10:46:35;12.33;;;1.83;;
1563;SDS011;775;51.958;7.976;2023-03-05T10:49:04;13.20;;;1.93;;
1563;SDS011;775;51.958;7.976;2023-03-05T10:51:35;9.70;;;1.60;;
1563;SDS011;775;51.958;7.976;2023-03-05T10:54:07;9.23;;;1.40;;
1563;SDS011;775;51.958;7.976;2023-03-05T10:56:37;10.40;;;1.90;;
1563;SDS011;775;51.958;7.976;2023-03-05T10:59:05;9.70;;;1.93;;
1563;SDS011;775;51.958;7.976;2023-03-05T11:01:32;10.00;;;2.00;;
1563;SDS011;775;51.958;7.976;2023-03-05T11:04:01;10.40;;;2.37;;
1563;SDS011;775;51.958;7.976;2023-03-05T11:06:35;12.10;;;2.07;;
1563;SDS011;775;51.958;7.976;2023-03-05T11:09:16;11.03;;;1.50;;
1563;SDS011;775;51.958;7.976;2023-03-05T11:11:43;10.17;;;2.10;;
1563;SDS011;775;51.958;7.976;2023-03-05T11:14:21;11.00;;;1.80;;
1563;SDS011;775;51.958;7.976;2023-03-05T11:16:53;12.83;;;1.67;;
1563;SDS011;775;51.958;7.976;2023-03-05T11:19:23;9.43;;;1.37;;
1563;SDS011;775;51.958;7.976;2023-03-05T11:22:05;9.53;;;1.77;;
1563;SDS011;775;51.958;7.976;2023-03-05T11:24:34;9.87;;;2.30;;
1563;SDS011;775;51.958;7.976;2023-03-05T11:27:19;10.23;;;1.90;;
1563;SDS011;775;51.958;7.976;2023-03-05T11:29:48;10.27;;;1.77;;
1563;SDS011;775;51.958;7.976;2023-03-05T11:32:15;11.00;;;1.70;;
1563;SDS011;775;51.958;7.976;2023-03-05T11:34:43;9.33;;;1.70;;
1563;SDS011;775;51.958;7.976;2023-03-05T11:37:17;10.50;;;1.70;;
1563;SDS011;775;51.958;7.976;2023-03-05T11:39:45;9.50;;;2.03;;
1563;SDS011;775;51.958;7.976;2023-03-05T11:42:13;11.60;;;1.97;;
1563;SDS011;775;51.958;7.976;2023-03-05T11:44:44;11.03;;;1.83;;
1563;SDS011;775;51.958;7.976;2023-03-05T11:47:16;11.03;;;1.63;;
1563;SDS011;775;51.958;7.976;2023-03-05T11:49:47;8.90;;;1.70;;
1563;SDS011;775;51.958;7.976;2023-03-05T11:52:19;12.17;;;1.57;;
1563;SDS011;775;51.958;7.976;2023-03-05T11:54:51;8.40;;;1.57;;
1563;SDS011;775;51.958;7.976;2023-03-05T11:57:20;9.47;;;1.47;;
1563;SDS011;775;51.958;7.976;2023-03-05T11:59:48;8.43;;;1.33;;
1563;SDS011;775;51.958;7.976;2023-03-05T12:02:17;9.50;;;1.60;;
1563;SDS011;775;51.958;7.976;2023-03-05T12:04:44;13.17;;;1.70;;
1563;SDS011;775;51.958;7.976;2023-03-05T12:07:12;8.33;;;1.30;;
1563;SDS011;775;51.958;7.976;2023-03-05T12:09:42;8.90;;;1.50;;
1563;SDS011;775;51.958;7.976;2023-03-05T12:12:15;9.70;;;1.40;;
1563;SDS011;775;51.958;7.976;2023-03-05T12:14:47;10.20;;;1.50;;
1563;SDS011;775;51.958;7.976;2023-03-05T12:17:17;8.60;;;1.70;;
1563;SDS011;775;51.958;7.976;2023-03-05T12:19:49;8.10;;;1.23;;
1563;SDS011;775;51.958;7.976;2023-03-05T12:22:18;10.17;;;1.63;;
1563;SDS011;775;51.958;7.976;2023-03-05T12:24:47;9.23;;;1.60;;
1563;SDS011;775;51.958;7.976;2023-03-05T12:27:15;9.10;;;1.40;;
1563;SDS011;775;51.958;7.976;2023-03-05T12:29:43;9.90;;;1.50;;
1563;SDS011;775;51.958;7.976;2023-03-05T12:34:56;10.43;;;1.53;;
1563;SDS011;775;51.958;7.976;2023-03-05T12:40:21;11.70;;;1.60;;
1563;SDS011;775;51.958;7.976;2023-03-05T12:42:52;8.70;;;1.73;;
1563;SDS011;775;51.958;7.976;2023-03-05T12:45:36;9.97;;;1.57;;
1563;SDS011;775;51.958;7.976;2023-03-05T12:50:49;12.10;;;1.50;;
1563;SDS011;775;51.958;7.976;2023-03-05T12:53:17;9.10;;;1.50;;
1563;SDS011;775;51.958;7.976;2023-03-05T12:55:50;10.77;;;1.60;;
1563;SDS011;775;51.958;7.976;2023-03-05T12:58:20;9.50;;;1.60;;
1563;SDS011;775;51.958;7.976;2023-03-05T13:00:52;10.23;;;1.37;;
1563;SDS011;775;51.958;7.976;2023-03-05T13:03:25;8.30;;;1.03;;
1563;SDS011;775;51.958;7.976;2023-03-05T13:05:55;7.50;;;1.00;;
1563;SDS011;775;51.958;7.976;2023-03-05T13:08:23;8.77;;;1.50;;
1563;SDS011;775;51.958;7.976;2023-03-05T13:10:52;8.27;;;1.50;;
1563;SDS011;775;51.958;7.976;2023-03-05T13:13:20;7.80;;;1.30;;
1563;SDS011;775;51.958;7.976;2023-03-05T13:15:48;10.33;;;1.70;;
1563;SDS011;775;51.958;7.976;2023-03-05T13:18:17;9.07;;;1.23;;
1563;SDS011;775;51.958;7.976;2023-03-05T13:20:45;8.00;;;1.27;;
1563;SDS011;775;51.958;7.976;2023-03-05T13:23:17;9.07;;;1.27;;
1563;SDS011;775;51.958;7.976;2023-03-05T13:25:56;8.10;;;1.33;;
1563;SDS011;775;51.958;7.976;2023-03-05T13:28:23;9.40;;;1.60;;
1563;SDS011;775;51.958;7.976;2023-03-05T13:30:51;9.53;;;1.20;;
1563;SDS011;775;51.958;7.976;2023-03-05T13:33:21;7.80;;;1.40;;
1563;SDS011;775;51.958;7.976;2023-03-05T13:35:49;7.80;;;1.33;;
1563;SDS011;775;51.958;7.976;2023-03-05T13:38:20;8.53;;;1.70;;
1563;SDS011;775;51.958;7.976;2023-03-05T13:41:00;10.10;;;1.40;;
1563;SDS011;775;51.958;7.976;2023-03-05T13:43:28;7.53;;;0.93;;
1563;SDS011;775;51.958;7.976;2023-03-05T13:45:55;7.80;;;1.20;;
1563;SDS011;775;51.958;7.976;2023-03-05T13:48:24;8.77;;;1.23;;
1563;SDS011;775;51.958;7.976;2023-03-05T13:50:52;7.80;;;1.20;;
1563;SDS011;775;51.958;7.976;2023-03-05T13:53:21;8.50;;;1.63;;
1563;SDS011;775;51.958;7.976;2023-03-05T13:55:49;10.90;;;1.30;;
1563;SDS011;775;51.958;7.976;2023-03-05T14:01:09;7.70;;;1.37;;
1563;SDS011;775;51.958;7.976;2023-03-05T14:03:38;10.73;;;1.40;;
1563;SDS011;775;51.958;7.976;2023-03-05T14:06:06;7.90;;;1.33;;
1563;SDS011;775;51.958;7.976;2023-03-05T14:08:34;10.47;;;1.40;;
1563;SDS011;775;51.958;7.976;2023-03-05T14:11:10;9.50;;;1.30;;
1563;SDS011;775;51.958;7.976;2023-03-05T14:13:37;9.17;;;1.60;;
1563;SDS011;775;51.958;7.976;2023-03-05T14:16:07;7.63;;;1.00;;
1563;SDS011;775;51.958;7.976;2023-03-05T14:18:34;9.27;;;1.10;;
1563;SDS011;775;51.958;7.976;2023-03-05T14:21:03;8.40;;;1.30;;
1563;SDS011;775;51.958;7.976;2023-03-05T14:23:35;12.67;;;1.37;;
1563;SDS011;775;51.958;7.976;2023-03-05T14:28:55;9.30;;;1.20;;
1563;SDS011;775;51.958;7.976;2023-03-05T14:31:23;10.77;;;1.60;;
1563;SDS011;775;51.958;7.976;2023-03-05T14:33:52;8.30;;;1.23;;
1563;SDS011;775;51.958;7.976;2023-03-05T14:36:21;7.80;;;1.10;;
1563;SDS011;775;51.958;7.976;2023-03-05T14:38:48;8.00;;;1.20;;
1563;SDS011;775;51.958;7.976;2023-03-05T14:44:04;7.90;;;1.20;;
1563;SDS011;775;51.958;7.976;2023-03-05T14:46:36;8.40;;;1.60;;
1563;SDS011;775;51.958;7.976;2023-03-05T14:49:03;16.73;;;1.40;;
1563;SDS011;775;51.958;7.976;2023-03-05T14:51:30;8.50;;;1.30;;
1563;SDS011;775;51.958;7.976;2023-03-05T14:53:58;7.53;;;1.10;;
1563;SDS011;775;51.958;7.976;2023-03-05T14:56:26;8.17;;;1.27;;
1563;SDS011;775;51.958;7.976;2023-03-05T14:58:53;10.43;;;1.40;;
1563;SDS011;775;51.958;7.976;2023-03-05T15:01:21;8.77;;;1.10;;
1563;SDS011;775;51.958;7.976;2023-03-05T15:03:50;8.17;;;1.30;;
1563;SDS011;775;51.958;7.976;2023-03-05T15:06:18;10.23;;;1.10;;
1563;SDS011;775;51.958;7.976;2023-03-05T15:08:46;8.30;;;1.17;;
1563;SDS011;775;51.958;7.976;2023-03-05T15:11:13;8.00;;;1.17;;
1563;SDS011;775;51.958;7.976;2023-03-05T15:13:40;11.50;;;1.67;;
1563;SDS011;775;51.958;7.976;2023-03-05T15:16:10;8.10;;;1.30;;
1563;SDS011;775;51.958;7.976;2023-03-05T15:18:38;7.97;;;1.20;;
1563;SDS011;775;51.958;7.976;2023-03-05T15:21:07;10.10;;;1.50;;
1563;SDS011;775;51.958;7.976;2023-03-05T15:23:34;8.33;;;1.40;;
1563;SDS011;775;51.958;7.976;2023-03-05T15:26:02;7.80;;;1.10;;
1563;SDS011;775;51.958;7.976;2023-03-05T15:28:31;9.70;;;1.23;;
1563;SDS011;775;51.958;7.976;2023-03-05T15:30:59;8.33;;;1.10;;
1563;SDS011;775;51.958;7.976;2023-03-05T15:33:26;9.97;;;1.33;;
1563;SDS011;775;51.958;7.976;2023-03-05T15:35:54;8.10;;;1.60;;
1563;SDS011;775;51.958;7.976;2023-03-05T15:38:22;8.93;;;1.43;;
1563;SDS011;775;51.958;7.976;2023-03-05T15:40:50;8.30;;;1.30;;
1563;SDS011;775;51.958;7.976;2023-03-05T15:43:17;9.53;;;1.40;;
1563;SDS011;775;51.958;7.976;2023-03-05T15:45:44;10.10;;;1.93;;